Time,TemperatureF,DewpointF,PressureIn,WindDirection,WindDirectionDegrees,WindSpeedMPH,WindSpeedGustMPH,Humidity,HourlyPrecipIn,Conditions,Clouds,dailyrainin,SoftwareType,DateUTC
2013-02-20 00:06:00,39.2,36.2,29.73,NNW,337,2.7,-999.0,89,-99.99,,,0.00,Acu-Link.com,2013-02-20 08:06:00,
2013-02-20 00:22:00,39.0,36.0,29.73,NNW,337,4.2,-999.0,89,-99.99,,,0.00,Acu-Link.com,2013-02-20 08:22:00,
2013-02-20 00:37:00,38.8,35.8,29.73,NNW,337,2.2,-999.0,89,-99.99,,,0.00,Acu-Link.com,2013-02-20 08:37:00,
2013-02-20 00:52:00,37.9,35.0,29.72,NNW,337,1.7,-999.0,89,-99.99,,,0.00,Acu-Link.com,2013-02-20 08:52:00,
2013-02-20 01:18:00,37.9,35.0,29.72,NNW,337,0.0,-999.0,89,-99.99,,,0.00,Acu-Link.com,2013-02-20 09:18:00,
2013-02-20 01:33:00,37.4,34.5,29.72,NNW,337,1.1,-999.0,89,-99.99,,,0.00,Acu-Link.com,2013-02-20 09:33:00,
2013-02-20 01:48:00,39.4,35.6,29.72,NNW,337,2.2,-999.0,86,-99.99,,,0.00,Acu-Link.com,2013-02-20 09:48:00,
2013-02-20 02:03:00,38.8,34.1,29.73,NNW,337,1.7,-999.0,83,-99.99,,,0.00,Acu-Link.com,2013-02-20 10:03:00,
2013-02-20 02:18:00,38.3,33.6,29.73,NNW,337,1.1,-999.0,83,-99.99,,,0.00,Acu-Link.com,2013-02-20 10:18:00,
2013-02-20 02:33:00,37.2,32.5,29.73,NNW,337,0.0,-999.0,83,-99.99,,,0.00,Acu-Link.com,2013-02-20 10:33:00,
2013-02-20 02:49:00,36.1,31.7,29.73,NNW,337,0.0,-999.0,84,-99.99,,,0.00,Acu-Link.com,2013-02-20 10:49:00,
2013-02-20 03:04:00,35.6,31.5,29.73,NNW,337,0.0,-999.0,85,-99.99,,,0.00,Acu-Link.com,2013-02-20 11:04:00,
2013-02-20 03:19:00,35.2,31.4,29.72,NNW,337,3.2,-999.0,86,-99.99,,,0.00,Acu-Link.com,2013-02-20 11:19:00,
2013-02-20 03:34:00,34.7,31.2,29.73,NNW,337,2.2,-999.0,87,-99.99,,,0.01,Acu-Link.com,2013-02-20 11:34:00,
2013-02-20 03:49:00,34.5,31.3,29.73,NNW,337,2.2,-999.0,88,-99.99,,,0.01,Acu-Link.com,2013-02-20 11:49:00,
2013-02-20 04:05:00,34.2,31.0,29.74,NNW,337,0.0,-999.0,88,-99.99,,,0.01,Acu-Link.com,2013-02-20 12:05:00,
2013-02-20 04:20:00,35.4,31.6,29.74,NNW,337,2.7,-999.0,86,-99.99,,,0.01,Acu-Link.com,2013-02-20 12:20:00,
2013-02-20 04:35:00,35.2,31.4,29.75,NNW,337,2.7,-999.0,86,-99.99,,,0.01,Acu-Link.com,2013-02-20 12:35:00,
2013-02-20 04:50:00,35.1,31.3,29.76,NNW,337,2.2,-999.0,86,-99.99,,,0.01,Acu-Link.com,2013-02-20 12:50:00,
2013-02-20 05:05:00,36.5,31.2,29.76,NNW,337,2.7,-999.0,81,-99.99,,,0.01,Acu-Link.com,2013-02-20 13:05:00,
2013-02-20 05:21:00,34.2,29.6,29.74,NNW,337,2.7,-999.0,83,-99.99,,,0.01,Acu-Link.com,2013-02-20 13:21:00,
2013-02-20 05:36:00,33.8,29.8,29.75,NNW,337,2.7,-999.0,85,-99.99,,,0.01,Acu-Link.com,2013-02-20 13:36:00,
2013-02-20 05:51:00,33.1,29.4,29.76,NNW,337,0.0,-999.0,86,-99.99,,,0.01,Acu-Link.com,2013-02-20 13:51:00,
2013-02-20 06:06:00,32.0,28.6,29.76,NNW,337,0.0,-999.0,87,-99.99,,,0.01,Acu-Link.com,2013-02-20 14:06:00,
2013-02-20 06:21:00,31.8,28.7,29.76,NNW,337,1.1,-999.0,88,-99.99,,,0.01,Acu-Link.com,2013-02-20 14:21:00,
2013-02-20 06:37:00,31.6,28.7,29.77,NNW,337,1.1,-999.0,89,-99.99,,,0.01,Acu-Link.com,2013-02-20 14:37:00,
2013-02-20 06:52:00,31.5,28.6,29.77,NNW,337,1.7,-999.0,89,-99.99,,,0.01,Acu-Link.com,2013-02-20 14:52:00,
2013-02-20 07:07:00,32.0,29.4,29.78,NNW,337,0.0,-999.0,90,-99.99,,,0.01,Acu-Link.com,2013-02-20 15:07:00,
2013-02-20 07:22:00,32.9,30.3,29.80,NNW,337,1.1,-999.0,90,-99.99,,,0.01,Acu-Link.com,2013-02-20 15:22:00,
2013-02-20 07:37:00,33.6,31.3,29.80,NNW,337,1.1,-999.0,91,-99.99,,,0.01,Acu-Link.com,2013-02-20 15:37:00,
2013-02-20 07:53:00,36.5,34.1,29.80,NNW,337,0.0,-999.0,91,-99.99,,,0.01,Acu-Link.com,2013-02-20 15:53:00,
2013-02-20 08:08:00,38.3,35.9,29.82,NNW,337,0.0,-999.0,91,-99.99,,,0.01,Acu-Link.com,2013-02-20 16:08:00,
2013-02-20 08:23:00,39.2,36.5,29.82,NNW,337,0.0,-999.0,90,-99.99,,,0.01,Acu-Link.com,2013-02-20 16:23:00,
2013-02-20 08:38:00,43.9,40.3,29.82,NNW,337,1.7,-999.0,87,-99.99,,,0.01,Acu-Link.com,2013-02-20 16:38:00,
2013-02-20 08:53:00,46.6,41.4,29.83,NNW,337,1.1,-999.0,82,-99.99,,,0.01,Acu-Link.com,2013-02-20 16:53:00,
2013-02-20 09:09:00,46.8,40.0,29.83,NNW,337,3.7,-999.0,77,-99.99,,,0.01,Acu-Link.com,2013-02-20 17:09:00,
2013-02-20 09:24:00,47.8,39.9,29.84,NNW,337,0.0,-999.0,74,-99.99,,,0.01,Acu-Link.com,2013-02-20 17:24:00,
2013-02-20 09:39:00,49.8,40.8,29.84,NNW,337,1.1,-999.0,71,-99.99,,,0.01,Acu-Link.com,2013-02-20 17:39:00,
2013-02-20 09:55:00,50.4,40.2,29.84,NNW,337,4.7,-999.0,68,-99.99,,,0.01,Acu-Link.com,2013-02-20 17:55:00,
2013-02-20 10:10:00,52.7,42.1,29.85,NNW,337,3.2,-999.0,67,-99.99,,,0.01,Acu-Link.com,2013-02-20 18:10:00,
2013-02-20 10:25:00,52.9,41.5,29.86,NNW,337,2.7,-999.0,65,-99.99,,,0.01,Acu-Link.com,2013-02-20 18:25:00,
2013-02-20 10:40:00,53.8,41.9,29.87,ENE,67,1.7,-999.0,64,-99.99,,,0.01,Acu-Link.com,2013-02-20 18:40:00,
2013-02-20 10:56:00,54.3,41.6,29.87,SE,135,1.1,-999.0,62,-99.99,,,0.01,Acu-Link.com,2013-02-20 18:56:00,
2013-02-20 11:11:00,55.2,42.0,29.87,WNW,292,2.2,-999.0,61,-99.99,,,0.01,Acu-Link.com,2013-02-20 19:11:00,
2013-02-20 11:27:00,56.5,42.3,29.87,North,0,1.1,-999.0,59,-99.99,,,0.01,Acu-Link.com,2013-02-20 19:27:00,
2013-02-20 11:42:00,56.5,41.9,29.85,ENE,67,2.7,-999.0,58,-99.99,,,0.01,Acu-Link.com,2013-02-20 19:42:00,
2013-02-20 11:57:00,57.0,41.9,29.86,North,0,2.7,-999.0,57,-99.99,,,0.01,Acu-Link.com,2013-02-20 19:57:00,
2013-02-20 12:12:00,57.2,41.6,29.85,ESE,112,2.7,-999.0,56,-99.99,,,0.01,Acu-Link.com,2013-02-20 20:12:00,
2013-02-20 12:27:00,59.4,43.2,29.84,South,180,5.8,-999.0,55,-99.99,,,0.01,Acu-Link.com,2013-02-20 20:27:00,
2013-02-20 12:43:00,57.2,40.7,29.84,SW,225,1.7,-999.0,54,-99.99,,,0.01,Acu-Link.com,2013-02-20 20:43:00,
2013-02-20 12:58:00,59.2,42.6,29.84,SSE,157,4.7,-999.0,54,-99.99,,,0.01,Acu-Link.com,2013-02-20 20:58:00,
2013-02-20 13:13:00,58.8,41.7,29.84,South,180,4.7,-999.0,53,-99.99,,,0.01,Acu-Link.com,2013-02-20 21:13:00,
2013-02-20 13:28:00,61.3,44.0,29.84,ESE,112,3.7,-999.0,53,-99.99,,,0.01,Acu-Link.com,2013-02-20 21:28:00,
2013-02-20 13:43:00,59.7,42.0,29.83,SSW,202,4.2,-999.0,52,-99.99,,,0.01,Acu-Link.com,2013-02-20 21:43:00,
2013-02-20 13:58:00,60.6,42.9,29.83,South,180,10.9,-999.0,52,-99.99,,,0.01,Acu-Link.com,2013-02-20 21:58:00,
2013-02-20 14:14:00,59.7,42.0,29.83,South,180,8.3,-999.0,52,-99.99,,,0.01,Acu-Link.com,2013-02-20 22:14:00,
2013-02-20 14:29:00,59.7,41.5,29.84,South,180,7.8,-999.0,51,-99.99,,,0.01,Acu-Link.com,2013-02-20 22:29:00,
2013-02-20 14:44:00,60.3,42.1,29.84,SSE,157,8.9,-999.0,51,-99.99,,,0.01,Acu-Link.com,2013-02-20 22:44:00,
2013-02-20 14:59:00,59.7,41.0,29.84,SSW,202,7.3,-999.0,50,-99.99,,,0.01,Acu-Link.com,2013-02-20 22:59:00,
2013-02-20 15:14:00,60.3,41.6,29.84,SW,225,4.7,-999.0,50,-99.99,,,0.01,Acu-Link.com,2013-02-20 23:14:00,
2013-02-20 15:30:00,59.9,41.2,29.83,South,180,7.3,-999.0,50,-99.99,,,0.01,Acu-Link.com,2013-02-20 23:30:00,
2013-02-20 15:45:00,59.9,42.2,29.83,South,180,5.3,-999.0,52,-99.99,,,0.01,Acu-Link.com,2013-02-20 23:45:00,
2013-02-20 16:00:00,58.6,42.0,29.82,SSE,157,4.7,-999.0,54,-99.99,,,0.01,Acu-Link.com,2013-02-21 00:00:00,
2013-02-20 16:15:00,58.5,42.4,29.81,ESE,112,4.2,-999.0,55,-99.99,,,0.01,Acu-Link.com,2013-02-21 00:15:00,
2013-02-20 16:31:00,58.8,42.7,29.82,NNE,22,1.7,-999.0,55,-99.99,,,0.01,Acu-Link.com,2013-02-21 00:31:00,
2013-02-20 16:46:00,59.2,42.6,29.82,SW,225,0.0,-999.0,54,-99.99,,,0.01,Acu-Link.com,2013-02-21 00:46:00,
2013-02-20 20:50:00,42.6,31.3,29.94,SW,225,1.1,-999.0,64,-99.99,,,0.01,Acu-Link.com,2013-02-21 04:50:00,
2013-02-20 21:05:00,41.7,31.6,29.94,SW,225,1.1,-999.0,67,-99.99,,,0.01,Acu-Link.com,2013-02-21 05:05:00,
2013-02-20 21:21:00,41.2,31.5,29.95,SW,225,0.0,-999.0,68,-99.99,,,0.01,Acu-Link.com,2013-02-21 05:21:00,
2013-02-20 21:36:00,39.9,31.3,29.95,SW,225,1.7,-999.0,71,-99.99,,,0.01,Acu-Link.com,2013-02-21 05:36:00,
2013-02-20 21:51:00,39.4,31.1,29.96,SW,225,1.7,-999.0,72,-99.99,,,0.01,Acu-Link.com,2013-02-21 05:51:00,
2013-02-20 22:06:00,38.5,30.6,29.97,SW,225,1.7,-999.0,73,-99.99,,,0.01,Acu-Link.com,2013-02-21 06:06:00,
2013-02-20 22:21:00,37.9,30.4,29.98,SW,225,1.7,-999.0,74,-99.99,,,0.01,Acu-Link.com,2013-02-21 06:21:00,
2013-02-20 22:37:00,37.4,30.2,29.98,SW,225,2.2,-999.0,75,-99.99,,,0.01,Acu-Link.com,2013-02-21 06:37:00,
2013-02-20 22:52:00,37.0,30.2,29.99,SW,225,0.0,-999.0,76,-99.99,,,0.01,Acu-Link.com,2013-02-21 06:52:00,
2013-02-20 23:07:00,36.3,29.8,30.00,SW,225,0.0,-999.0,77,-99.99,,,0.01,Acu-Link.com,2013-02-21 07:07:00,
2013-02-20 23:22:00,36.3,30.1,30.00,SW,225,0.0,-999.0,78,-99.99,,,0.01,Acu-Link.com,2013-02-21 07:22:00,
2013-02-20 23:37:00,37.2,31.0,30.01,SW,225,0.0,-999.0,78,-99.99,,,0.01,Acu-Link.com,2013-02-21 07:37:00,
2013-02-20 23:53:00,36.1,29.9,30.01,SW,225,0.0,-999.0,78,-99.99,,,0.01,Acu-Link.com,2013-02-21 07:53:00,